sensor_id;sensor_type;location;lat;lon;timestamp;pressure;altitude;pressure_sealevel;temperature;humidity
30744;BME280;17486;46.738;7.622;2023-02-24T00:01:50;94714.78;;;10.36;59.28
30744;BME280;17486;46.738;7.622;2023-02-24T00:04:19;94714.00;;;10.34;59.48
30744;BME280;17486;46.738;7.622;2023-02-24T00:06:45;94688.13;;;10.16;59.27
30744;BME280;17486;46.738;7.622;2023-02-24T00:09:18;94718.78;;;10.25;59.27
30744;BME280;17486;46.738;7.622;2023-02-24T00:11:46;94706.66;;;10.26;59.18
30744;BME280;17486;46.738;7.622;2023-02-24T00:14:14;94673.16;;;10.05;59.23
30744;BME280;17486;46.738;7.622;2023-02-24T00:16:41;94708.66;;;10.21;59.25
30744;BME280;17486;46.738;7.622;2023-02-24T00:19:08;94679.69;;;9.96;58.67
30744;BME280;17486;46.738;7.622;2023-02-24T00:21:35;94699.47;;;9.99;59.61
30744;BME280;17486;46.738;7.622;2023-02-24T00:24:01;94703.00;;;9.98;59.60
30744;BME280;17486;46.738;7.622;2023-02-24T00:26:27;94709.19;;;9.95;59.30
30744;BME280;17486;46.738;7.622;2023-02-24T00:28:55;94701.34;;;9.97;59.92
30744;BME280;17486;46.738;7.622;2023-02-24T00:31:21;94710.06;;;9.96;59.75
30744;BME280;17486;46.738;7.622;2023-02-24T00:33:48;94694.63;;;9.93;59.37
30744;BME280;17486;46.738;7.622;2023-02-24T00:36:16;94687.94;;;9.89;58.98
30744;BME280;17486;46.738;7.622;2023-02-24T00:38:53;94693.97;;;9.89;59.40
30744;BME280;17486;46.738;7.622;2023-02-24T00:41:22;94704.38;;;9.89;59.02
30744;BME280;17486;46.738;7.622;2023-02-24T00:43:48;94664.19;;;9.65;59.30
30744;BME280;17486;46.738;7.622;2023-02-24T00:46:19;94662.81;;;9.57;59.61
30744;BME280;17486;46.738;7.622;2023-02-24T00:48:46;94670.69;;;9.56;59.39
30744;BME280;17486;46.738;7.622;2023-02-24T00:51:14;94678.66;;;9.53;59.63
30744;BME280;17486;46.738;7.622;2023-02-24T00:53:48;94668.78;;;9.43;59.06
30744;BME280;17486;46.738;7.622;2023-02-24T00:56:14;94705.97;;;9.60;59.35
30744;BME280;17486;46.738;7.622;2023-02-24T00:58:41;94696.94;;;9.51;59.66
30744;BME280;17486;46.738;7.622;2023-02-24T01:01:12;94672.03;;;9.31;59.82
30744;BME280;17486;46.738;7.622;2023-02-24T01:03:39;94694.38;;;9.34;59.73
30744;BME280;17486;46.738;7.622;2023-02-24T01:06:06;94672.03;;;9.15;59.68
30744;BME280;17486;46.738;7.622;2023-02-24T01:08:31;94718.75;;;9.31;60.34
30744;BME280;17486;46.738;7.622;2023-02-24T01:11:01;94706.56;;;9.16;60.10
30744;BME280;17486;46.738;7.622;2023-02-24T01:13:45;94701.28;;;9.01;60.25
30744;BME280;17486;46.738;7.622;2023-02-24T01:16:12;94663.44;;;8.81;60.48
30744;BME280;17486;46.738;7.622;2023-02-24T01:18:39;94715.94;;;9.02;60.57
30744;BME280;17486;46.738;7.622;2023-02-24T01:21:05;94712.72;;;8.97;60.13
30744;BME280;17486;46.738;7.622;2023-02-24T01:23:30;94695.50;;;8.96;60.50
30744;BME280;17486;46.738;7.622;2023-02-24T01:25:56;94694.16;;;8.89;60.24
30744;BME280;17486;46.738;7.622;2023-02-24T01:28:27;94674.56;;;8.83;60.53
30744;BME280;17486;46.738;7.622;2023-02-24T01:30:53;94694.50;;;8.99;60.34
30744;BME280;17486;46.738;7.622;2023-02-24T01:33:20;94686.81;;;8.97;60.64
30744;BME280;17486;46.738;7.622;2023-02-24T01:35:46;94665.34;;;8.77;60.56
30744;BME280;17486;46.738;7.622;2023-02-24T01:38:11;94691.25;;;8.95;60.46
30744;BME280;17486;46.738;7.622;2023-02-24T01:40:37;94694.75;;;8.94;60.58
30744;BME280;17486;46.738;7.622;2023-02-24T01:43:05;94695.84;;;8.90;60.69
30744;BME280;17486;46.738;7.622;2023-02-24T01:45:34;94709.53;;;8.92;60.50
30744;BME280;17486;46.738;7.622;2023-02-24T01:48:07;94709.50;;;8.93;60.52
30744;BME280;17486;46.738;7.622;2023-02-24T01:50:35;94671.00;;;8.68;60.62
30744;BME280;17486;46.738;7.622;2023-02-24T01:53:04;94695.78;;;8.74;61.10
30744;BME280;17486;46.738;7.622;2023-02-24T01:55:35;94654.78;;;8.47;60.91
30744;BME280;17486;46.738;7.622;2023-02-24T01:58:05;94667.53;;;8.52;61.09
30744;BME280;17486;46.738;7.622;2023-02-24T02:00:33;94665.59;;;8.55;60.94
30744;BME280;17486;46.738;7.622;2023-02-24T02:03:27;94669.78;;;8.58;61.00
30744;BME280;17486;46.738;7.622;2023-02-24T02:05:58;94659.28;;;8.61;60.96
30744;BME280;17486;46.738;7.622;2023-02-24T02:08:25;94701.16;;;8.87;60.72
30744;BME280;17486;46.738;7.622;2023-02-24T02:10:51;94690.03;;;8.85;60.96
30744;BME280;17486;46.738;7.622;2023-02-24T02:13:24;94665.59;;;8.73;60.70
30744;BME280;17486;46.738;7.622;2023-02-24T02:16:09;94691.13;;;8.81;61.02
30744;BME280;17486;46.738;7.622;2023-02-24T02:18:54;94662.63;;;8.63;60.64
30744;BME280;17486;46.738;7.622;2023-02-24T02:24:18;94696.91;;;8.86;60.73
30744;BME280;17486;46.738;7.622;2023-02-24T02:27:09;94683.50;;;8.77;61.06
30744;BME280;17486;46.738;7.622;2023-02-24T02:35:43;94703.91;;;8.84;60.83
30744;BME280;17486;46.738;7.622;2023-02-24T02:38:21;94693.56;;;8.84;61.17
30744;BME280;17486;46.738;7.622;2023-02-24T02:46:39;94681.56;;;8.81;61.33
30744;BME280;17486;46.738;7.622;2023-02-24T02:51:40;94659.75;;;8.52;61.20
30744;BME280;17486;46.738;7.622;2023-02-24T02:54:26;94674.66;;;8.64;61.81
30744;BME280;17486;46.738;7.622;2023-02-24T02:59:26;94684.88;;;8.67;61.70
30744;BME280;17486;46.738;7.622;2023-02-24T03:01:55;94673.84;;;8.63;61.92
30744;BME280;17486;46.738;7.622;2023-02-24T03:04:38;94682.22;;;8.69;61.84
30744;BME280;17486;46.738;7.622;2023-02-24T03:07:06;94681.16;;;8.73;61.63
30744;BME280;17486;46.738;7.622;2023-02-24T03:09:37;94643.34;;;8.51;61.83
30744;BME280;17486;46.738;7.622;2023-02-24T03:12:08;94669.19;;;8.70;61.72
30744;BME280;17486;46.738;7.622;2023-02-24T03:14:38;94629.50;;;8.52;61.37
30744;BME280;17486;46.738;7.622;2023-02-24T03:17:11;94644.72;;;8.58;61.68
30744;BME280;17486;46.738;7.622;2023-02-24T03:19:40;94661.41;;;8.70;62.16
30744;BME280;17486;46.738;7.622;2023-02-24T03:22:21;94635.50;;;8.53;61.94
30744;BME280;17486;46.738;7.622;2023-02-24T03:24:49;94656.91;;;8.74;61.86
30744;BME280;17486;46.738;7.622;2023-02-24T03:27:33;94625.97;;;8.53;61.85
30744;BME280;17486;46.738;7.622;2023-02-24T03:30:11;94649.56;;;8.65;61.86
30744;BME280;17486;46.738;7.622;2023-02-24T03:32:47;94673.06;;;8.79;61.59
30744;BME280;17486;46.738;7.622;2023-02-24T03:35:26;94651.25;;;8.66;61.43
30744;BME280;17486;46.738;7.622;2023-02-24T03:37:54;94667.03;;;8.78;61.49
30744;BME280;17486;46.738;7.622;2023-02-24T03:40:22;94637.69;;;8.60;61.87
30744;BME280;17486;46.738;7.622;2023-02-24T03:43:03;94656.81;;;8.75;61.76
30744;BME280;17486;46.738;7.622;2023-02-24T03:45:34;94631.50;;;8.63;61.79
30744;BME280;17486;46.738;7.622;2023-02-24T03:48:03;94642.75;;;8.63;61.91
30744;BME280;17486;46.738;7.622;2023-02-24T03:50:29;94658.91;;;8.69;61.98
30744;BME280;17486;46.738;7.622;2023-02-24T04:03:34;94649.94;;;8.74;61.82
30744;BME280;17486;46.738;7.622;2023-02-24T04:06:12;94662.31;;;8.69;61.63
30744;BME280;17486;46.738;7.622;2023-02-24T04:09:05;94659.50;;;8.74;61.41
30744;BME280;17486;46.738;7.622;2023-02-24T04:11:43;94626.97;;;8.51;61.81
30744;BME280;17486;46.738;7.622;2023-02-24T04:14:21;94621.97;;;8.48;61.80
30744;BME280;17486;46.738;7.622;2023-02-24T04:17:07;94645.47;;;8.60;61.60
30744;BME280;17486;46.738;7.622;2023-02-24T04:19:39;94638.94;;;8.53;61.63
30744;BME280;17486;46.738;7.622;2023-02-24T04:22:09;94650.81;;;8.57;61.63
30744;BME280;17486;46.738;7.622;2023-02-24T04:24:37;94613.88;;;8.36;61.77
30744;BME280;17486;46.738;7.622;2023-02-24T04:27:04;94642.28;;;8.55;61.89
30744;BME280;17486;46.738;7.622;2023-02-24T04:29:37;94647.72;;;8.51;61.58
30744;BME280;17486;46.738;7.622;2023-02-24T04:32:07;94606.78;;;8.22;61.75
30744;BME280;17486;46.738;7.622;2023-02-24T04:34:33;94624.84;;;8.24;61.88
30744;BME280;17486;46.738;7.622;2023-02-24T04:36:59;94642.97;;;8.24;62.11
30744;BME280;17486;46.738;7.622;2023-02-24T04:39:27;94629.41;;;8.19;62.36
30744;BME280;17486;46.738;7.622;2023-02-24T04:41:53;94591.34;;;8.03;62.55
30744;BME280;17486;46.738;7.622;2023-02-24T04:44:22;94606.09;;;8.19;62.47
30744;BME280;17486;46.738;7.622;2023-02-24T04:46:49;94574.97;;;8.03;62.49
30744;BME280;17486;46.738;7.622;2023-02-24T04:49:15;94607.94;;;8.17;62.44
30744;BME280;17486;46.738;7.622;2023-02-24T04:51:42;94568.03;;;7.86;62.41
30744;BME280;17486;46.738;7.622;2023-02-24T04:54:13;94604.81;;;8.10;62.62
30744;BME280;17486;46.738;7.622;2023-02-24T04:56:42;94604.06;;;8.08;62.61
30744;BME280;17486;46.738;7.622;2023-02-24T04:59:09;94610.22;;;8.05;62.04
30744;BME280;17486;46.738;7.622;2023-02-24T05:01:36;94579.91;;;7.72;62.76
30744;BME280;17486;46.738;7.622;2023-02-24T05:04:07;94617.00;;;7.90;62.80
30744;BME280;17486;46.738;7.622;2023-02-24T05:06:33;94613.44;;;7.93;62.49
30744;BME280;17486;46.738;7.622;2023-02-24T05:08:59;94611.59;;;7.95;62.40
30744;BME280;17486;46.738;7.622;2023-02-24T05:11:26;94603.00;;;7.94;62.39
30744;BME280;17486;46.738;7.622;2023-02-24T05:13:59;94611.31;;;7.84;62.42
30744;BME280;17486;46.738;7.622;2023-02-24T05:16:25;94605.19;;;7.67;62.73
30744;BME280;17486;46.738;7.622;2023-02-24T05:18:53;94564.59;;;7.33;62.96
30744;BME280;17486;46.738;7.622;2023-02-24T05:21:39;94603.34;;;7.52;62.92
30744;BME280;17486;46.738;7.622;2023-02-24T05:24:06;94559.41;;;7.33;62.93
30744;BME280;17486;46.738;7.622;2023-02-24T05:26:34;94595.44;;;7.55;63.04
30744;BME280;17486;46.738;7.622;2023-02-24T05:29:00;94587.31;;;7.62;62.92
30744;BME280;17486;46.738;7.622;2023-02-24T05:31:27;94547.78;;;7.41;62.62
30744;BME280;17486;46.738;7.622;2023-02-24T05:33:59;94540.63;;;7.46;62.90
30744;BME280;17486;46.738;7.622;2023-02-24T05:36:31;94540.50;;;7.50;62.73
30744;BME280;17486;46.738;7.622;2023-02-24T05:38:57;94535.44;;;7.46;62.15
30744;BME280;17486;46.738;7.622;2023-02-24T05:41:26;94529.75;;;7.40;62.06
30744;BME280;17486;46.738;7.622;2023-02-24T05:44:02;94532.56;;;7.35;62.60
30744;BME280;17486;46.738;7.622;2023-02-24T05:46:36;94524.88;;;7.34;62.17
30744;BME280;17486;46.738;7.622;2023-02-24T05:49:13;94561.19;;;7.50;62.72
30744;BME280;17486;46.738;7.622;2023-02-24T05:51:39;94539.47;;;7.35;62.36
30744;BME280;17486;46.738;7.622;2023-02-24T05:54:10;94576.41;;;7.56;62.10
30744;BME280;17486;46.738;7.622;2023-02-24T05:56:38;94530.72;;;7.37;62.16
30744;BME280;17486;46.738;7.622;2023-02-24T05:59:05;94534.22;;;7.36;61.97
30744;BME280;17486;46.738;7.622;2023-02-24T06:01:38;94541.59;;;7.44;61.54
30744;BME280;17486;46.738;7.622;2023-02-24T06:04:06;94518.69;;;7.36;61.91
30744;BME280;17486;46.738;7.622;2023-02-24T06:06:33;94528.13;;;7.37;61.82
30744;BME280;17486;46.738;7.622;2023-02-24T06:09:01;94557.69;;;7.51;61.53
30744;BME280;17486;46.738;7.622;2023-02-24T06:11:31;94561.81;;;7.55;61.58
30744;BME280;17486;46.738;7.622;2023-02-24T06:13:57;94567.88;;;7.54;61.35
30744;BME280;17486;46.738;7.622;2023-02-24T06:16:22;94524.28;;;7.28;61.56
30744;BME280;17486;46.738;7.622;2023-02-24T06:18:50;94527.06;;;7.24;61.67
30744;BME280;17486;46.738;7.622;2023-02-24T06:21:16;94565.50;;;7.49;61.77
30744;BME280;17486;46.738;7.622;2023-02-24T06:23:41;94561.31;;;7.46;61.70
30744;BME280;17486;46.738;7.622;2023-02-24T06:26:07;94552.13;;;7.41;61.41
30744;BME280;17486;46.738;7.622;2023-02-24T06:28:44;94559.97;;;7.39;61.63
30744;BME280;17486;46.738;7.622;2023-02-24T06:31:10;94538.31;;;7.23;61.71
30744;BME280;17486;46.738;7.622;2023-02-24T06:33:37;94570.16;;;7.42;62.25
30744;BME280;17486;46.738;7.622;2023-02-24T06:36:03;94550.25;;;7.25;61.76
30744;BME280;17486;46.738;7.622;2023-02-24T06:38:30;94543.66;;;7.20;61.68
30744;BME280;17486;46.738;7.622;2023-02-24T06:40:57;94575.47;;;7.39;61.98
30744;BME280;17486;46.738;7.622;2023-02-24T06:43:22;94580.66;;;7.39;61.61
30744;BME280;17486;46.738;7.622;2023-02-24T06:45:48;94551.41;;;7.20;61.89
30744;BME280;17486;46.738;7.622;2023-02-24T06:48:14;94581.91;;;7.30;62.13
30744;BME280;17486;46.738;7.622;2023-02-24T06:50:39;94539.97;;;7.06;61.86
30744;BME280;17486;46.738;7.622;2023-02-24T06:53:05;94569.59;;;7.18;62.39
30744;BME280;17486;46.738;7.622;2023-02-24T06:55:44;94545.19;;;7.05;61.86
30744;BME280;17486;46.738;7.622;2023-02-24T06:58:16;94560.31;;;7.14;61.79
30744;BME280;17486;46.738;7.622;2023-02-24T07:00:41;94579.16;;;7.16;62.49
30744;BME280;17486;46.738;7.622;2023-02-24T07:03:15;94546.25;;;7.01;62.53
30744;BME280;17486;46.738;7.622;2023-02-24T07:05:46;94563.72;;;7.14;62.38
30744;BME280;17486;46.738;7.622;2023-02-24T07:08:19;94539.03;;;7.07;62.29
30744;BME280;17486;46.738;7.622;2023-02-24T07:10:56;94562.09;;;7.31;62.66
30744;BME280;17486;46.738;7.622;2023-02-24T07:13:26;94556.75;;;7.34;62.02
30744;BME280;17486;46.738;7.622;2023-02-24T07:15:54;94530.03;;;7.16;62.45
30744;BME280;17486;46.738;7.622;2023-02-24T07:18:20;94515.66;;;7.10;61.74
30744;BME280;17486;46.738;7.622;2023-02-24T07:20:47;94543.19;;;7.29;61.94
30744;BME280;17486;46.738;7.622;2023-02-24T07:23:14;94565.97;;;7.40;62.14
30744;BME280;17486;46.738;7.622;2023-02-24T07:25:40;94534.81;;;7.24;62.16
30744;BME280;17486;46.738;7.622;2023-02-24T07:28:11;94522.25;;;7.16;62.62
30744;BME280;17486;46.738;7.622;2023-02-24T07:30:38;94555.59;;;7.40;62.68
30744;BME280;17486;46.738;7.622;2023-02-24T07:33:04;94549.25;;;7.47;62.59
30744;BME280;17486;46.738;7.622;2023-02-24T07:35:31;94549.09;;;7.50;62.19
30744;BME280;17486;46.738;7.622;2023-02-24T07:37:58;94543.38;;;7.61;62.63
30744;BME280;17486;46.738;7.622;2023-02-24T07:40:32;94531.38;;;7.60;62.63
30744;BME280;17486;46.738;7.622;2023-02-24T07:42:59;94551.44;;;7.72;62.12
30744;BME280;17486;46.738;7.622;2023-02-24T07:45:25;94550.25;;;7.79;62.55
30744;BME280;17486;46.738;7.622;2023-02-24T07:47:50;94534.78;;;7.78;62.18
30744;BME280;17486;46.738;7.622;2023-02-24T07:50:16;94537.56;;;7.91;62.48
30744;BME280;17486;46.738;7.622;2023-02-24T07:52:46;94509.56;;;7.82;62.38
30744;BME280;17486;46.738;7.622;2023-02-24T07:55:13;94523.63;;;7.93;62.03
30744;BME280;17486;46.738;7.622;2023-02-24T07:57:42;94498.75;;;7.91;61.97
30744;BME280;17486;46.738;7.622;2023-02-24T08:00:14;94525.44;;;8.09;62.33
30744;BME280;17486;46.738;7.622;2023-02-24T08:02:54;94511.50;;;8.11;62.32
30744;BME280;17486;46.738;7.622;2023-02-24T08:05:20;94485.84;;;8.07;62.11
30744;BME280;17486;46.738;7.622;2023-02-24T08:07:46;94497.31;;;8.19;62.16
30744;BME280;17486;46.738;7.622;2023-02-24T08:10:19;94518.75;;;8.38;61.97
30744;BME280;17486;46.738;7.622;2023-02-24T08:12:53;94489.66;;;8.33;62.13
30744;BME280;17486;46.738;7.622;2023-02-24T08:15:23;94512.69;;;8.55;61.82
30744;BME280;17486;46.738;7.622;2023-02-24T08:17:56;94488.13;;;8.46;61.85
30744;BME280;17486;46.738;7.622;2023-02-24T08:20:27;94495.13;;;8.60;61.65
30744;BME280;17486;46.738;7.622;2023-02-24T08:23:13;94494.00;;;8.66;61.51
30744;BME280;17486;46.738;7.622;2023-02-24T08:25:39;94521.31;;;8.88;61.58
30744;BME280;17486;46.738;7.622;2023-02-24T08:28:08;94519.31;;;8.93;61.27
30744;BME280;17486;46.738;7.622;2023-02-24T08:30:43;94507.94;;;8.95;61.53
30744;BME280;17486;46.738;7.622;2023-02-24T08:33:17;94484.00;;;8.90;61.49
30744;BME280;17486;46.738;7.622;2023-02-24T08:35:43;94501.38;;;9.20;61.12
30744;BME280;17486;46.738;7.622;2023-02-24T08:38:11;94501.06;;;9.26;61.45
30744;BME280;17486;46.738;7.622;2023-02-24T08:40:51;94487.38;;;9.39;61.06
30744;BME280;17486;46.738;7.622;2023-02-24T08:46:00;94501.09;;;9.71;60.65
30744;BME280;17486;46.738;7.622;2023-02-24T08:48:47;94452.66;;;9.70;60.11
30744;BME280;17486;46.738;7.622;2023-02-24T08:53:50;94463.09;;;9.99;59.96
30744;BME280;17486;46.738;7.622;2023-02-24T08:56:18;94445.47;;;10.04;59.66
30744;BME280;17486;46.738;7.622;2023-02-24T08:58:50;94464.41;;;10.35;59.08
30744;BME280;17486;46.738;7.622;2023-02-24T09:01:26;94455.19;;;10.44;59.27
30744;BME280;17486;46.738;7.622;2023-02-24T09:03:55;94462.34;;;10.55;58.33
30744;BME280;17486;46.738;7.622;2023-02-24T09:08:59;94449.09;;;10.87;58.37
30744;BME280;17486;46.738;7.622;2023-02-24T09:11:56;94425.56;;;10.88;58.43
30744;BME280;17486;46.738;7.622;2023-02-24T09:14:28;94426.03;;;11.08;57.54
30744;BME280;17486;46.738;7.622;2023-02-24T09:16:56;94447.22;;;11.29;55.79
30744;BME280;17486;46.738;7.622;2023-02-24T09:19:34;94448.72;;;11.33;56.86
30744;BME280;17486;46.738;7.622;2023-02-24T09:22:08;94450.13;;;11.52;56.17
30744;BME280;17486;46.738;7.622;2023-02-24T09:24:45;94426.69;;;11.52;58.13
30744;BME280;17486;46.738;7.622;2023-02-24T09:27:15;94412.69;;;11.53;58.54
30744;BME280;17486;46.738;7.622;2023-02-24T09:29:41;94439.94;;;11.87;59.03
30744;BME280;17486;46.738;7.622;2023-02-24T09:32:14;94415.56;;;11.88;57.34
30744;BME280;17486;46.738;7.622;2023-02-24T09:34:41;94412.47;;;11.96;56.28
30744;BME280;17486;46.738;7.622;2023-02-24T09:37:09;94436.38;;;12.27;56.31
30744;BME280;17486;46.738;7.622;2023-02-24T09:39:49;94407.41;;;12.19;54.57
30744;BME280;17486;46.738;7.622;2023-02-24T09:42:26;94434.81;;;12.37;52.78
30744;BME280;17486;46.738;7.622;2023-02-24T09:45:00;94426.25;;;12.35;53.61
30744;BME280;17486;46.738;7.622;2023-02-24T09:47:34;94424.88;;;12.42;53.11
30744;BME280;17486;46.738;7.622;2023-02-24T09:52:51;94412.75;;;12.54;52.90
30744;BME280;17486;46.738;7.622;2023-02-24T09:55:18;94384.50;;;12.48;52.21
30744;BME280;17486;46.738;7.622;2023-02-24T10:01:05;94383.38;;;12.76;51.30
30744;BME280;17486;46.738;7.622;2023-02-24T10:03:55;94392.03;;;13.01;50.85
30744;BME280;17486;46.738;7.622;2023-02-24T10:06:44;94358.91;;;13.02;50.94
30744;BME280;17486;46.738;7.622;2023-02-24T10:09:31;94382.88;;;13.31;50.57
30744;BME280;17486;46.738;7.622;2023-02-24T10:12:02;94378.44;;;13.45;50.62
30744;BME280;17486;46.738;7.622;2023-02-24T10:14:36;94383.81;;;13.66;50.00
30744;BME280;17486;46.738;7.622;2023-02-24T10:17:14;94367.44;;;13.75;49.82
30744;BME280;17486;46.738;7.622;2023-02-24T10:22:42;94366.63;;;13.97;49.19
30744;BME280;17486;46.738;7.622;2023-02-24T10:25:54;94358.53;;;14.12;49.64
30744;BME280;17486;46.738;7.622;2023-02-24T10:31:14;94373.47;;;14.43;48.43
30744;BME280;17486;46.738;7.622;2023-02-24T10:33:58;94335.19;;;14.42;48.29
30744;BME280;17486;46.738;7.622;2023-02-24T10:36:25;94368.69;;;14.60;48.14
30744;BME280;17486;46.738;7.622;2023-02-24T10:39:17;94344.19;;;14.61;47.80
30744;BME280;17486;46.738;7.622;2023-02-24T10:41:51;94343.16;;;14.64;47.15
30744;BME280;17486;46.738;7.622;2023-02-24T10:44:28;94332.28;;;14.68;47.44
30744;BME280;17486;46.738;7.622;2023-02-24T10:47:11;94336.63;;;14.90;46.99
30744;BME280;17486;46.738;7.622;2023-02-24T10:52:12;94305.22;;;15.12;46.97
30744;BME280;17486;46.738;7.622;2023-02-24T10:54:58;94339.97;;;15.56;46.71
30744;BME280;17486;46.738;7.622;2023-02-24T10:57:40;94318.50;;;15.62;44.74
30744;BME280;17486;46.738;7.622;2023-02-24T11:00:16;94326.53;;;15.70;45.42
30744;BME280;17486;46.738;7.622;2023-02-24T11:02:48;94292.03;;;15.65;45.44
30744;BME280;17486;46.738;7.622;2023-02-24T11:05:35;94307.50;;;15.99;45.72
30744;BME280;17486;46.738;7.622;2023-02-24T11:08:20;94290.16;;;16.08;44.75
30744;BME280;17486;46.738;7.622;2023-02-24T11:11:30;94274.72;;;16.15;43.52
30744;BME280;17486;46.738;7.622;2023-02-24T11:14:18;94303.34;;;16.37;43.22
30744;BME280;17486;46.738;7.622;2023-02-24T11:17:02;94299.22;;;16.45;43.16
30744;BME280;17486;46.738;7.622;2023-02-24T11:19:42;94291.09;;;16.57;42.78
30744;BME280;17486;46.738;7.622;2023-02-24T11:22:13;94267.19;;;16.51;42.74
30744;BME280;17486;46.738;7.622;2023-02-24T11:24:39;94278.81;;;16.78;43.11
30744;BME280;17486;46.738;7.622;2023-02-24T11:27:05;94274.13;;;17.01;43.06
30744;BME280;17486;46.738;7.622;2023-02-24T11:35:36;94255.28;;;17.25;41.15
30744;BME280;17486;46.738;7.622;2023-02-24T11:40:41;94227.09;;;16.98;41.11
30744;BME280;17486;46.738;7.622;2023-02-24T11:45:46;94214.19;;;17.34;41.09
30744;BME280;17486;46.738;7.622;2023-02-24T11:48:29;94209.66;;;17.64;41.01
30744;BME280;17486;46.738;7.622;2023-02-24T11:51:02;94227.47;;;18.08;40.42
30744;BME280;17486;46.738;7.622;2023-02-24T11:59:39;94178.47;;;18.61;38.41
30744;BME280;17486;46.738;7.622;2023-02-24T12:05:19;94207.72;;;18.94;38.12
30744;BME280;17486;46.738;7.622;2023-02-24T12:07:51;94196.13;;;18.86;37.04
30744;BME280;17486;46.738;7.622;2023-02-24T12:10:42;94187.84;;;18.99;37.80
30744;BME280;17486;46.738;7.622;2023-02-24T12:16:15;94168.03;;;19.48;36.08
30744;BME280;17486;46.738;7.622;2023-02-24T12:18:51;94171.91;;;19.70;36.11
30744;BME280;17486;46.738;7.622;2023-02-24T12:21:31;94143.75;;;19.79;35.96
30744;BME280;17486;46.738;7.622;2023-02-24T12:23:58;94166.81;;;20.11;34.97
30744;BME280;17486;46.738;7.622;2023-02-24T12:26:50;94151.84;;;20.28;35.30
30744;BME280;17486;46.738;7.622;2023-02-24T12:37:48;94151.69;;;20.96;33.75
30744;BME280;17486;46.738;7.622;2023-02-24T12:53:50;94099.63;;;21.21;31.87
30744;BME280;17486;46.738;7.622;2023-02-24T12:56:24;94114.44;;;21.39;31.17
30744;BME280;17486;46.738;7.622;2023-02-24T12:58:55;94108.50;;;21.28;31.10
30744;BME280;17486;46.738;7.622;2023-02-24T13:01:31;94110.53;;;21.26;31.47
30744;BME280;17486;46.738;7.622;2023-02-24T13:07:17;94075.97;;;21.28;31.76
30744;BME280;17486;46.738;7.622;2023-02-24T13:12:26;94096.91;;;21.85;30.97
30744;BME280;17486;46.738;7.622;2023-02-24T13:14:52;94082.69;;;22.10;30.22
30744;BME280;17486;46.738;7.622;2023-02-24T13:17:21;94075.28;;;22.05;30.24
30744;BME280;17486;46.738;7.622;2023-02-24T13:19:48;94082.25;;;21.98;29.72
30744;BME280;17486;46.738;7.622;2023-02-24T13:22:26;94078.25;;;21.79;30.41
30744;BME280;17486;46.738;7.622;2023-02-24T13:27:38;94075.63;;;21.70;30.17
30744;BME280;17486;46.738;7.622;2023-02-24T13:30:06;94079.06;;;21.79;29.93
30744;BME280;17486;46.738;7.622;2023-02-24T13:33:02;94034.31;;;21.69;30.09
30744;BME280;17486;46.738;7.622;2023-02-24T13:35:30;94043.00;;;21.78;30.02
30744;BME280;17486;46.738;7.622;2023-02-24T13:38:07;94075.84;;;21.92;30.23
30744;BME280;17486;46.738;7.622;2023-02-24T13:40:32;94058.53;;;22.05;30.35
30744;BME280;17486;46.738;7.622;2023-02-24T13:42:59;94058.66;;;22.11;30.47
30744;BME280;17486;46.738;7.622;2023-02-24T13:51:07;94047.91;;;22.36;30.18
30744;BME280;17486;46.738;7.622;2023-02-24T14:01:49;94019.34;;;21.77;29.80
30744;BME280;17486;46.738;7.622;2023-02-24T14:04:21;94043.53;;;21.74;30.03
30744;BME280;17486;46.738;7.622;2023-02-24T14:06:57;94035.03;;;21.55;29.88
30744;BME280;17486;46.738;7.622;2023-02-24T14:09:29;94005.25;;;21.22;30.15
30744;BME280;17486;46.738;7.622;2023-02-24T14:12:00;94009.78;;;21.04;30.59
30744;BME280;17486;46.738;7.622;2023-02-24T14:14:27;94028.78;;;21.00;30.95
30744;BME280;17486;46.738;7.622;2023-02-24T14:16:53;94026.19;;;20.83;30.92
30744;BME280;17486;46.738;7.622;2023-02-24T14:19:19;94031.31;;;20.68;31.34
30744;BME280;17486;46.738;7.622;2023-02-24T14:21:49;94037.28;;;20.54;31.47
30744;BME280;17486;46.738;7.622;2023-02-24T14:24:16;94006.13;;;20.25;31.67
30744;BME280;17486;46.738;7.622;2023-02-24T14:26:45;94030.69;;;20.25;31.64
30744;BME280;17486;46.738;7.622;2023-02-24T14:29:18;94029.72;;;20.18;31.90
30744;BME280;17486;46.738;7.622;2023-02-24T14:31:52;93996.38;;;19.84;32.18
30744;BME280;17486;46.738;7.622;2023-02-24T14:34:21;94033.66;;;19.89;32.36
30744;BME280;17486;46.738;7.622;2023-02-24T14:36:50;94021.41;;;19.80;32.54
30744;BME280;17486;46.738;7.622;2023-02-24T14:41:41;94015.28;;;19.79;32.60
30744;BME280;17486;46.738;7.622;2023-02-24T14:44:17;94022.13;;;19.98;32.65
30744;BME280;17486;46.738;7.622;2023-02-24T14:46:47;94010.56;;;20.08;32.35
30744;BME280;17486;46.738;7.622;2023-02-24T14:49:20;94008.28;;;20.04;32.07
30744;BME280;17486;46.738;7.622;2023-02-24T14:51:48;94010.56;;;20.16;32.30
30744;BME280;17486;46.738;7.622;2023-02-24T14:54:20;94001.47;;;20.43;31.91
30744;BME280;17486;46.738;7.622;2023-02-24T14:56:47;94004.88;;;20.68;31.96
30744;BME280;17486;46.738;7.622;2023-02-24T14:59:32;93994.03;;;20.72;31.40
30744;BME280;17486;46.738;7.622;2023-02-24T15:02:00;93986.59;;;20.59;31.10
30744;BME280;17486;46.738;7.622;2023-02-24T15:04:35;93963.84;;;20.41;31.46
30744;BME280;17486;46.738;7.622;2023-02-24T15:07:11;93971.44;;;20.28;30.75
30744;BME280;17486;46.738;7.622;2023-02-24T15:09:43;93982.22;;;20.10;31.00
30744;BME280;17486;46.738;7.622;2023-02-24T15:12:32;93968.19;;;19.93;30.95
30744;BME280;17486;46.738;7.622;2023-02-24T15:15:06;93984.50;;;19.88;31.73
30744;BME280;17486;46.738;7.622;2023-02-24T15:17:37;93981.16;;;19.78;31.76
30744;BME280;17486;46.738;7.622;2023-02-24T15:22:55;93977.19;;;19.57;32.61
30744;BME280;17486;46.738;7.622;2023-02-24T15:25:24;93988.41;;;19.51;32.81
30744;BME280;17486;46.738;7.622;2023-02-24T15:27:53;93980.16;;;19.46;33.04
30744;BME280;17486;46.738;7.622;2023-02-24T15:33:00;93947.13;;;19.17;32.70
30744;BME280;17486;46.738;7.622;2023-02-24T15:35:27;93977.28;;;19.22;32.97
30744;BME280;17486;46.738;7.622;2023-02-24T15:37:52;93969.53;;;19.13;33.18
30744;BME280;17486;46.738;7.622;2023-02-24T15:40:21;93971.81;;;19.08;33.41